Time;durP1;ratioP1;P1;durP2;ratioP2;P2;SDS_P1;SDS_P2;PMS_P1;PMS_P2;Temp;Humidity;BMP_temperature;BMP_pressure;BME280_temperature;BME280_humidity;BME280_pressure;Samples;Min_cycle;Max_cycle;Signal;HPM_P1;HPM_P2
2022/10/03 00:00:19;;;;;;;23.00;12.57;;;13.80;99.90;;;;;;5086668;28;20250;-74
2022/10/03 00:02:47;;;;;;;20.33;11.87;;;13.80;99.90;;;;;;5076200;28;20188;-74
2022/10/03 00:05:28;;;;;;;20.37;11.63;;;13.80;99.90;;;;;;5084622;28;20264;-74
2022/10/03 00:08:06;;;;;;;22.00;12.47;;;13.80;99.90;;;;;;5079196;28;20206;-74
2022/10/03 00:10:56;;;;;;;20.37;12.10;;;13.80;99.90;;;;;;5081228;28;20199;-74
2022/10/03 00:13:24;;;;;;;24.53;12.90;;;13.80;99.90;;;;;;5078817;28;20192;-74
2022/10/03 00:16:12;;;;;;;21.00;12.37;;;13.80;99.90;;;;;;5086382;28;20195;-74
2022/10/03 00:18:52;;;;;;;19.60;12.00;;;13.80;99.90;;;;;;5078375;28;20184;-74
2022/10/03 00:21:24;;;;;;;23.10;12.53;;;13.80;99.90;;;;;;5082185;28;20269;-74
2022/10/03 00:24:12;;;;;;;21.53;13.13;;;13.80;99.90;;;;;;5071837;28;20195;-74
2022/10/03 00:26:46;;;;;;;22.13;12.40;;;13.80;99.90;;;;;;5084995;28;20712;-74
2022/10/03 00:29:35;;;;;;;22.53;12.57;;;13.80;99.90;;;;;;5076936;28;20652;-74
2022/10/03 00:32:21;;;;;;;21.50;12.77;;;13.80;99.90;;;;;;5073374;28;20283;-74
2022/10/03 00:34:59;;;;;;;24.63;13.23;;;13.80;99.90;;;;;;5085053;28;20188;-74
2022/10/03 00:37:37;;;;;;;27.03;13.93;;;13.70;99.90;;;;;;5077572;28;20184;-74
2022/10/03 00:40:15;;;;;;;23.33;12.90;;;13.70;99.90;;;;;;5072426;28;20228;-74
2022/10/03 00:42:43;;;;;;;20.47;11.63;;;13.80;99.90;;;;;;5082708;28;20222;-74
2022/10/03 00:45:40;;;;;;;19.90;11.60;;;13.70;99.90;;;;;;5080745;28;20258;-74
2022/10/03 00:48:15;;;;;;;24.93;13.60;;;13.60;99.90;;;;;;5085721;28;20180;-74
2022/10/03 00:50:46;;;;;;;19.73;11.67;;;13.60;99.90;;;;;;5086101;28;20606;-74
2022/10/03 00:53:32;;;;;;;18.73;11.57;;;13.60;99.90;;;;;;5076192;28;20187;-74
2022/10/03 00:56:17;;;;;;;23.63;13.00;;;13.60;99.90;;;;;;5071194;28;20181;-74
2022/10/03 00:59:24;;;;;;;19.97;11.90;;;13.60;99.90;;;;;;5085455;28;20180;-74
2022/10/03 01:01:50;;;;;;;18.40;10.47;;;13.50;99.90;;;;;;4995921;28;20297;-74
2022/10/03 01:04:34;;;;;;;15.00;10.37;;;13.50;99.90;;;;;;5002630;28;20697;-74
2022/10/03 01:07:04;;;;;;;18.13;10.80;;;13.50;99.90;;;;;;5045257;28;20203;-74
2022/10/03 01:09:47;;;;;;;19.80;11.47;;;13.40;99.90;;;;;;5080807;28;20204;-74
2022/10/03 01:12:38;;;;;;;19.97;11.70;;;13.30;99.90;;;;;;5080437;28;20200;-74
2022/10/03 01:15:16;;;;;;;21.37;12.13;;;13.30;99.90;;;;;;5085585;28;20561;-74
2022/10/03 01:18:04;;;;;;;23.27;12.57;;;13.30;99.90;;;;;;5078772;28;20219;-74
2022/10/03 01:20:51;;;;;;;35.80;10.63;;;13.30;99.90;;;;;;5076625;28;20223;-74
2022/10/03 01:23:31;;;;;;;43.27;11.50;;;13.20;99.90;;;;;;5084870;28;20272;-74
2022/10/03 01:26:18;;;;;;;16.00;7.80;;;13.20;99.90;;;;;;5074956;28;20199;-74
2022/10/03 01:32:14;;;;;;;40.27;9.73;;;13.20;99.90;;;;;;5078902;28;20208;-74
2022/10/03 01:34:53;;;;;;;19.37;7.80;;;13.10;99.90;;;;;;5068257;28;20181;-74
2022/10/03 01:37:22;;;;;;;22.47;7.70;;;13.10;99.90;;;;;;5082712;28;20593;-74
2022/10/03 01:39:58;;;;;;;22.37;8.57;;;13.00;99.90;;;;;;5090311;28;20189;-74
2022/10/03 01:42:53;;;;;;;21.70;8.73;;;13.00;99.90;;;;;;5085163;28;20180;-74
2022/10/03 01:45:35;;;;;;;25.47;8.60;;;13.00;99.90;;;;;;5079811;28;20189;-74
2022/10/03 01:48:07;;;;;;;36.50;9.40;;;13.00;99.90;;;;;;5079527;28;20188;-74
2022/10/03 01:50:56;;;;;;;28.33;10.63;;;12.90;99.90;;;;;;5063864;28;20308;-74
2022/10/03 01:53:47;;;;;;;44.93;10.87;;;13.00;99.90;;;;;;5062499;28;20212;-74
2022/10/03 01:56:31;;;;;;;14.77;9.03;;;13.00;99.90;;;;;;5085324;28;20189;-74
2022/10/03 01:59:17;;;;;;;13.50;9.57;;;12.90;99.90;;;;;;5083187;28;20180;-74
2022/10/03 02:01:47;;;;;;;14.83;8.97;;;12.90;99.90;;;;;;5084975;28;20208;-74
2022/10/03 02:04:19;;;;;;;20.53;9.93;;;12.90;99.90;;;;;;5080368;28;20181;-74
2022/10/03 02:07:01;;;;;;;19.97;10.90;;;12.90;99.90;;;;;;5076255;28;20184;-74
2022/10/03 02:09:53;;;;;;;14.73;9.30;;;12.90;99.90;;;;;;5084666;28;20185;-74
2022/10/03 02:12:18;;;;;;;18.57;10.20;;;12.80;99.90;;;;;;5088606;28;20233;-74
2022/10/03 02:15:18;;;;;;;19.77;11.20;;;12.80;99.90;;;;;;5080143;28;20787;-74
2022/10/03 02:18:11;;;;;;;20.70;9.53;;;12.80;99.90;;;;;;5078158;28;20992;-74
2022/10/03 02:20:49;;;;;;;18.03;7.80;;;12.70;99.90;;;;;;5081836;28;20209;-74
2022/10/03 02:23:25;;;;;;;17.20;8.40;;;12.70;99.90;;;;;;5081747;28;20870;-74
2022/10/03 02:25:58;;;;;;;11.23;6.60;;;12.60;99.90;;;;;;5089922;28;20180;-74
2022/10/03 02:29:01;;;;;;;14.43;7.20;;;12.60;99.90;;;;;;5083050;28;20181;-74
2022/10/03 02:31:55;;;;;;;15.60;8.60;;;12.60;99.90;;;;;;5044587;28;20284;-74
2022/10/03 02:34:46;;;;;;;18.57;10.10;;;12.60;99.90;;;;;;5076298;28;20181;-73
2022/10/03 02:37:50;;;;;;;26.60;11.90;;;12.60;99.90;;;;;;5075706;28;20268;-74
2022/10/03 02:40:55;;;;;;;28.90;10.80;;;12.50;99.90;;;;;;5085503;28;20631;-74
2022/10/03 02:44:14;;;;;;;40.77;12.40;;;12.60;99.90;;;;;;5077650;28;20264;-74
2022/10/03 02:47:07;;;;;;;20.63;11.47;;;12.40;99.90;;;;;;5087235;28;20189;-74
2022/10/03 02:49:39;;;;;;;28.30;12.47;;;12.40;99.90;;;;;;5082746;28;20214;-74
2022/10/03 02:52:26;;;;;;;23.47;12.00;;;12.30;99.90;;;;;;5066799;28;20204;-74
2022/10/03 02:55:10;;;;;;;18.07;10.80;;;12.30;99.90;;;;;;5078921;28;20224;-74
2022/10/03 02:58:04;;;;;;;19.37;10.83;;;12.30;99.90;;;;;;5078824;28;20240;-74
2022/10/03 03:01:00;;;;;;;15.50;10.43;;;12.30;99.90;;;;;;5084234;28;20560;-74
2022/10/03 03:04:06;;;;;;;19.00;10.83;;;12.30;99.90;;;;;;5080466;28;20177;-74
2022/10/03 03:07:01;;;;;;;17.03;11.70;;;12.30;99.90;;;;;;5078918;28;20726;-74
2022/10/03 03:09:49;;;;;;;14.20;9.97;;;12.20;99.90;;;;;;5084037;28;20301;-74
2022/10/03 03:12:23;;;;;;;12.43;8.87;;;12.20;99.90;;;;;;5082976;28;20232;-74
2022/10/03 03:15:19;;;;;;;12.83;9.30;;;12.10;99.90;;;;;;5075281;28;20658;-74
2022/10/03 03:18:18;;;;;;;12.67;8.93;;;12.10;99.90;;;;;;5076755;28;20267;-74
2022/10/03 03:21:03;;;;;;;15.93;10.27;;;12.00;99.90;;;;;;5081740;28;20250;-74
2022/10/03 03:23:35;;;;;;;16.07;10.90;;;11.90;99.90;;;;;;5076580;28;20571;-74
2022/10/03 03:26:28;;;;;;;16.33;11.33;;;11.90;99.90;;;;;;5086739;28;20716;-74
2022/10/03 03:29:22;;;;;;;14.40;10.83;;;11.90;99.90;;;;;;5087303;28;20214;-74
2022/10/03 03:32:08;;;;;;;15.00;10.03;;;11.80;99.90;;;;;;5080902;28;20282;-74
2022/10/03 03:34:50;;;;;;;14.93;10.40;;;11.80;99.90;;;;;;5082644;28;20187;-74
2022/10/03 03:37:28;;;;;;;14.00;9.67;;;11.70;99.90;;;;;;5084783;28;20258;-74
2022/10/03 03:40:13;;;;;;;11.43;8.57;;;11.70;99.90;;;;;;5082833;28;20181;-74
2022/10/03 03:43:00;;;;;;;13.60;8.83;;;11.60;99.90;;;;;;5080437;28;20268;-74
2022/10/03 03:46:05;;;;;;;12.43;9.27;;;11.60;99.90;;;;;;5080957;28;20193;-74
2022/10/03 03:48:43;;;;;;;13.10;8.30;;;11.60;99.90;;;;;;5074509;28;20268;-74
2022/10/03 03:51:32;;;;;;;10.00;7.37;;;11.60;99.90;;;;;;5079588;28;20207;-74
2022/10/03 03:54:40;;;;;;;6.27;5.60;;;11.60;99.90;;;;;;5080764;28;20280;-74
2022/10/03 03:57:36;;;;;;;6.50;5.73;;;11.50;99.90;;;;;;5035463;28;20232;-74
2022/10/03 04:00:20;;;;;;;6.27;5.43;;;11.40;99.90;;;;;;5084655;28;20198;-74
2022/10/03 04:02:59;;;;;;;8.60;6.67;;;11.40;99.90;;;;;;5083212;28;20263;-74
2022/10/03 04:05:52;;;;;;;8.10;6.77;;;11.40;99.90;;;;;;5077940;28;20184;-74
2022/10/03 04:08:46;;;;;;;11.07;7.03;;;11.30;99.90;;;;;;5070531;28;20176;-74
2022/10/03 04:11:26;;;;;;;10.50;7.20;;;11.20;99.90;;;;;;5078541;28;20278;-74
2022/10/03 04:14:21;;;;;;;12.20;8.83;;;11.20;99.90;;;;;;5080581;28;20192;-74
2022/10/03 04:20:30;;;;;;;5.40;4.90;;;11.00;99.90;;;;;;5078369;28;20188;-74
2022/10/03 04:23:23;;;;;;;4.33;3.93;;;11.00;99.90;;;;;;5080098;28;20177;-74
2022/10/03 04:26:45;;;;;;;4.67;4.13;;;10.90;99.90;;;;;;5078064;28;20172;-74
2022/10/03 04:29:32;;;;;;;5.27;4.77;;;10.80;99.90;;;;;;5004473;28;20186;-74
2022/10/03 04:32:16;;;;;;;4.30;3.87;;;10.80;99.90;;;;;;5075294;28;20223;-74
2022/10/03 04:35:01;;;;;;;4.50;3.57;;;10.80;99.90;;;;;;5062769;28;20746;-74
2022/10/03 04:37:48;;;;;;;4.13;3.73;;;10.80;99.90;;;;;;5078588;28;20188;-74
2022/10/03 04:40:16;;;;;;;5.20;4.70;;;10.70;99.90;;;;;;5077317;28;20747;-74
2022/10/03 04:42:59;;;;;;;4.60;4.20;;;10.70;99.90;;;;;;5079321;28;20648;-74
2022/10/03 04:45:52;;;;;;;4.23;3.53;;;10.60;99.90;;;;;;5080474;28;20218;-74
2022/10/03 04:48:38;;;;;;;3.93;3.53;;;10.50;99.90;;;;;;5076720;28;20691;-74
2022/10/03 04:51:22;;;;;;;5.03;3.70;;;10.30;99.90;;;;;;5080767;28;20283;-74
2022/10/03 04:53:56;;;;;;;5.47;4.07;;;10.40;99.90;;;;;;5078947;28;20232;-74
2022/10/03 04:56:33;;;;;;;5.33;4.10;;;10.40;99.90;;;;;;5080900;28;20214;-74
2022/10/03 04:59:26;;;;;;;5.27;4.70;;;10.50;99.90;;;;;;5076518;28;20195;-74
2022/10/03 05:02:29;;;;;;;4.43;3.97;;;10.50;99.90;;;;;;5066658;28;20270;-74
2022/10/03 05:05:26;;;;;;;4.77;4.30;;;10.50;99.90;;;;;;5057752;28;20188;-73
2022/10/03 05:07:57;;;;;;;5.00;4.30;;;10.40;99.90;;;;;;5077263;28;20307;-74
2022/10/03 05:10:47;;;;;;;7.13;4.20;;;10.40;99.90;;;;;;5082947;28;20755;-74
2022/10/03 05:13:41;;;;;;;12.73;3.60;;;10.30;99.90;;;;;;5086414;28;20193;-74
2022/10/03 05:16:16;;;;;;;8.07;2.90;;;10.20;99.90;;;;;;5085988;28;20238;-74
2022/10/03 05:19:00;;;;;;;3.33;3.03;;;10.20;99.90;;;;;;5083002;28;20188;-74
2022/10/03 05:21:32;;;;;;;3.90;3.37;;;10.20;99.90;;;;;;5080655;28;20205;-74
2022/10/03 05:24:22;;;;;;;3.50;3.20;;;10.20;99.90;;;;;;5080230;28;20659;-74
2022/10/03 05:27:06;;;;;;;4.03;3.33;;;10.20;99.90;;;;;;5084749;28;20184;-74
2022/10/03 05:30:00;;;;;;;4.10;3.70;;;10.20;99.90;;;;;;5082320;28;20325;-74
2022/10/03 05:32:49;;;;;;;4.63;4.23;;;10.20;99.90;;;;;;5083980;28;20180;-74
2022/10/03 05:35:27;;;;;;;5.47;4.53;;;10.20;99.90;;;;;;5079683;28;20941;-74
2022/10/03 05:38:14;;;;;;;5.70;4.10;;;10.20;99.90;;;;;;5080979;28;20278;-73
2022/10/03 05:40:50;;;;;;;5.57;4.10;;;10.20;99.90;;;;;;5064769;28;20243;-74
2022/10/03 05:43:45;;;;;;;4.20;3.80;;;10.20;99.90;;;;;;5083262;28;20177;-74
2022/10/03 05:46:38;;;;;;;4.47;3.80;;;10.20;99.90;;;;;;5079971;28;20723;-74
2022/10/03 05:49:07;;;;;;;4.00;3.60;;;10.20;99.90;;;;;;5080146;28;20180;-74
2022/10/03 05:52:00;;;;;;;4.73;3.50;;;10.10;99.90;;;;;;5077291;28;20215;-74
2022/10/03 05:54:41;;;;;;;4.00;3.60;;;10.00;99.90;;;;;;5067349;28;20196;-73
2022/10/03 05:57:19;;;;;;;4.37;3.93;;;10.00;99.90;;;;;;5078262;28;20596;-74
2022/10/03 05:59:59;;;;;;;4.87;4.07;;;10.00;99.90;;;;;;5062533;28;20207;-73
2022/10/03 06:02:56;;;;;;;4.93;4.43;;;10.00;99.90;;;;;;5078471;28;20205;-73
2022/10/03 06:05:43;;;;;;;4.67;4.27;;;9.90;99.90;;;;;;5082240;28;20699;-74
2022/10/03 06:08:36;;;;;;;4.67;4.20;;;9.90;99.90;;;;;;5082119;28;20176;-74
2022/10/03 06:11:37;;;;;;;5.60;4.60;;;9.90;99.90;;;;;;5074105;28;20578;-74
2022/10/03 06:14:43;;;;;;;4.07;3.73;;;10.00;99.90;;;;;;5079772;28;20179;-74
2022/10/03 06:18:10;;;;;;;5.23;4.73;;;9.90;99.90;;;;;;5072677;28;20629;-74
2022/10/03 06:21:08;;;;;;;6.43;5.10;;;9.80;99.90;;;;;;5028830;28;20225;-73
2022/10/03 06:23:57;;;;;;;5.83;4.53;;;9.80;99.90;;;;;;5081792;28;20687;-74
2022/10/03 06:26:58;;;;;;;4.37;3.97;;;9.80;99.90;;;;;;5086501;28;20709;-73
2022/10/03 06:29:41;;;;;;;4.97;3.70;;;9.90;99.90;;;;;;5001427;28;20228;-74
2022/10/03 06:32:40;;;;;;;5.03;4.57;;;9.90;99.90;;;;;;5078038;28;20208;-74
2022/10/03 06:35:24;;;;;;;5.27;4.40;;;9.90;99.90;;;;;;5088896;28;20192;-74
2022/10/03 06:38:24;;;;;;;7.13;5.07;;;10.00;99.90;;;;;;5081440;28;20196;-74
2022/10/03 06:41:13;;;;;;;8.57;5.67;;;10.00;99.90;;;;;;5083805;28;20200;-74
2022/10/03 06:43:55;;;;;;;12.83;6.13;;;10.10;99.90;;;;;;5082018;28;20181;-74
2022/10/03 06:46:48;;;;;;;8.13;5.57;;;10.10;99.90;;;;;;5083822;28;20180;-74
2022/10/03 06:49:29;;;;;;;8.97;6.27;;;10.10;99.90;;;;;;5088261;28;20244;-74
2022/10/03 06:52:07;;;;;;;9.47;6.60;;;10.20;99.90;;;;;;5077398;28;20219;-74
2022/10/03 06:54:42;;;;;;;8.10;6.07;;;10.30;99.90;;;;;;5074656;28;20184;-74
2022/10/03 06:58:02;;;;;;;8.77;6.13;;;10.40;99.90;;;;;;5086965;28;20219;-74
2022/10/03 07:00:51;;;;;;;12.37;8.47;;;10.60;99.90;;;;;;5001014;28;20370;-74
2022/10/03 07:03:51;;;;;;;25.60;9.13;;;10.60;99.90;;;;;;5000842;28;20184;-74
2022/10/03 07:06:17;;;;;;;9.40;7.90;;;10.80;99.90;;;;;;5055742;28;20189;-74
2022/10/03 07:09:07;;;;;;;13.77;8.23;;;10.90;99.90;;;;;;5084443;28;20196;-74
2022/10/03 07:12:03;;;;;;;15.23;9.00;;;11.10;99.90;;;;;;5084047;28;20763;-74
2022/10/03 07:15:06;;;;;;;18.27;10.10;;;11.10;99.90;;;;;;5086978;28;20180;-74
2022/10/03 07:17:49;;;;;;;17.33;11.70;;;11.10;99.90;;;;;;5076799;28;20184;-74
2022/10/03 07:20:59;;;;;;;16.83;10.97;;;11.20;99.90;;;;;;5084903;28;20234;-74
2022/10/03 07:23:50;;;;;;;14.67;10.20;;;11.20;99.90;;;;;;5075439;28;20285;-73
2022/10/03 07:26:53;;;;;;;19.10;10.07;;;11.30;99.90;;;;;;5079668;28;20840;-74
2022/10/03 07:29:33;;;;;;;18.67;9.77;;;11.40;99.90;;;;;;5083691;28;20941;-81
2022/10/03 07:32:19;;;;;;;17.93;9.83;;;11.50;99.90;;;;;;5083395;28;20235;-73
2022/10/03 07:35:03;;;;;;;16.07;8.83;;;11.50;99.90;;;;;;5083415;28;20180;-73
2022/10/03 07:41:05;;;;;;;19.53;9.70;;;11.60;99.90;;;;;;5065618;28;20608;-74
2022/10/03 07:43:50;;;;;;;18.73;9.63;;;11.80;99.90;;;;;;5083691;28;20179;-76
2022/10/03 07:46:24;;;;;;;14.83;10.50;;;11.80;99.90;;;;;;5068877;28;20183;-84
2022/10/03 07:49:08;;;;;;;18.43;13.00;;;11.80;99.90;;;;;;5079412;28;20203;-78
2022/10/03 07:51:53;;;;;;;18.60;11.93;;;11.90;99.90;;;;;;5047672;28;20577;-73
2022/10/03 07:54:23;;;;;;;23.93;13.93;;;12.00;99.90;;;;;;5079836;28;20234;-73
2022/10/03 07:57:08;;;;;;;19.97;12.30;;;;;;;;;;5074640;28;20176;-73
2022/10/03 08:00:00;;;;;;;19.40;12.87;;;12.10;99.90;;;;;;5079291;28;20187;-75
2022/10/03 08:03:00;;;;;;;18.53;12.20;;;12.40;99.90;;;;;;5082074;28;20196;-82
2022/10/03 08:05:53;;;;;;;16.90;12.47;;;12.50;99.90;;;;;;5083660;28;20180;-75
2022/10/03 08:08:49;;;;;;;16.57;12.70;;;12.50;99.90;;;;;;5074505;28;20176;-73
2022/10/03 08:11:20;;;;;;;19.07;14.47;;;12.60;99.90;;;;;;5029664;28;20970;-73
2022/10/03 08:14:20;;;;;;;20.90;15.03;;;12.60;99.90;;;;;;5077292;28;20183;-74
2022/10/03 08:17:03;;;;;;;15.77;13.07;;;12.60;99.90;;;;;;5077212;28;20183;-74
2022/10/03 08:19:42;;;;;;;20.27;14.03;;;12.60;99.90;;;;;;5083941;28;20181;-73
2022/10/03 08:22:25;;;;;;;24.57;15.57;;;12.70;99.90;;;;;;5078098;28;20295;-74
2022/10/03 08:25:09;;;;;;;19.70;15.93;;;12.70;99.90;;;;;;5080921;28;20184;-73
2022/10/03 08:28:01;;;;;;;20.57;14.50;;;12.70;99.90;;;;;;5080026;28;20223;-73
2022/10/03 08:30:50;;;;;;;21.67;14.50;;;12.70;99.90;;;;;;5083597;28;20228;-73
2022/10/03 08:33:53;;;;;;;23.23;14.43;;;12.80;99.90;;;;;;5076563;28;20193;-73
2022/10/03 08:36:41;;;;;;;17.83;14.33;;;12.80;99.90;;;;;;5083704;28;20223;-73
2022/10/03 08:39:44;;;;;;;19.70;13.90;;;12.90;99.90;;;;;;5080864;28;20529;-73
2022/10/03 08:42:42;;;;;;;19.87;14.27;;;13.00;99.90;;;;;;5076575;28;20211;-73
2022/10/03 08:45:25;;;;;;;19.47;14.77;;;13.00;99.90;;;;;;5020577;28;20216;-73
2022/10/03 08:48:25;;;;;;;18.03;13.27;;;13.00;99.90;;;;;;5082245;28;20244;-73
2022/10/03 08:51:15;;;;;;;24.87;14.83;;;13.00;99.90;;;;;;5070296;28;21830;-74
2022/10/03 08:54:04;;;;;;;21.10;13.57;;;13.00;99.90;;;;;;5075035;28;20539;-73
2022/10/03 08:56:45;;;;;;;21.53;13.03;;;13.00;99.90;;;;;;5064060;28;20180;-74
2022/10/03 08:59:46;;;;;;;19.43;13.43;;;13.00;99.90;;;;;;5080911;28;20664;-74
2022/10/03 09:02:31;;;;;;;21.50;13.57;;;13.10;99.90;;;;;;5080952;28;20264;-74
2022/10/03 09:05:18;;;;;;;21.57;13.60;;;13.20;99.90;;;;;;5082469;28;20223;-74
2022/10/03 09:08:00;;;;;;;17.30;12.87;;;13.20;99.90;;;;;;5079660;28;20177;-73
2022/10/03 09:10:37;;;;;;;17.30;12.73;;;13.30;99.90;;;;;;5073458;28;20204;-74
2022/10/03 09:13:22;;;;;;;20.07;13.67;;;13.40;99.90;;;;;;5076846;28;20192;-74
2022/10/03 09:16:25;;;;;;;19.67;13.53;;;13.50;99.90;;;;;;5081263;28;20230;-73
2022/10/03 09:19:11;;;;;;;22.43;14.50;;;13.60;99.90;;;;;;5075223;28;20688;-74
2022/10/03 09:21:56;;;;;;;23.17;15.53;;;13.60;99.90;;;;;;5067697;28;20204;-73
2022/10/03 09:24:27;;;;;;;22.03;15.13;;;13.70;99.90;;;;;;5063727;28;20177;-74
2022/10/03 09:27:07;;;;;;;19.40;14.10;;;13.70;99.90;;;;;;5078012;28;20212;-74
2022/10/03 09:30:02;;;;;;;21.47;14.20;;;13.60;99.90;;;;;;5075363;28;20515;-74
2022/10/03 09:32:37;;;;;;;18.93;13.30;;;13.60;99.90;;;;;;5075401;28;20173;-73
2022/10/03 09:35:20;;;;;;;22.53;14.17;;;13.70;99.90;;;;;;5074811;28;20185;-73
2022/10/03 09:38:18;;;;;;;21.10;13.03;;;13.70;99.90;;;;;;5083592;28;20184;-74
2022/10/03 09:40:56;;;;;;;23.40;14.13;;;13.80;99.90;;;;;;5075414;28;20204;-74
2022/10/03 09:43:58;;;;;;;22.27;13.40;;;13.90;99.90;;;;;;5081783;28;20255;-74
2022/10/03 09:47:21;;;;;;;18.53;12.50;;;13.90;99.90;;;;;;5080832;28;20172;-74
2022/10/03 09:50:00;;;;;;;22.50;13.67;;;14.00;99.90;;;;;;5076697;28;20177;-73
2022/10/03 09:52:55;;;;;;;19.90;12.67;;;14.10;99.90;;;;;;5073055;28;20665;-74
2022/10/03 09:55:30;;;;;;;16.63;11.17;;;14.10;99.90;;;;;;5075258;28;20258;-74
2022/10/03 09:58:07;;;;;;;14.57;10.77;;;14.10;99.90;;;;;;5085159;28;20713;-74
2022/10/03 10:00:55;;;;;;;16.37;10.37;;;14.10;99.90;;;;;;5078889;28;20249;-74
2022/10/03 10:03:40;;;;;;;16.60;9.97;;;14.20;99.90;;;;;;5062247;28;20177;-73
2022/10/03 10:06:28;;;;;;;14.93;10.17;;;14.20;99.90;;;;;;5082297;28;20181;-75
2022/10/03 10:09:30;;;;;;;18.20;11.43;;;14.30;99.90;;;;;;5060462;28;20603;-74
2022/10/03 10:12:10;;;;;;;20.07;11.00;;;14.30;99.90;;;;;;5081191;28;20612;-74
2022/10/03 10:14:55;;;;;;;13.63;9.90;;;14.40;99.90;;;;;;5079581;28;20199;-74
2022/10/03 10:17:25;;;;;;;19.23;10.13;;;14.40;99.90;;;;;;5081342;28;20185;-74
2022/10/03 10:20:19;;;;;;;17.20;9.43;;;14.50;99.90;;;;;;5081651;28;20193;-74
2022/10/03 10:23:14;;;;;;;20.10;9.27;;;14.50;99.90;;;;;;5009880;28;20230;-74
2022/10/03 10:25:52;;;;;;;14.87;9.40;;;14.50;99.90;;;;;;5048222;28;20254;-73
2022/10/03 10:28:28;;;;;;;16.97;9.80;;;14.60;99.90;;;;;;5083117;28;20177;-75
2022/10/03 10:31:03;;;;;;;13.53;8.73;;;14.60;99.90;;;;;;5080523;28;20201;-74
2022/10/03 10:33:58;;;;;;;13.00;9.17;;;14.60;99.90;;;;;;5082843;28;20179;-74
2022/10/03 10:36:45;;;;;;;13.60;8.40;;;14.70;99.90;;;;;;5078808;28;20285;-74
2022/10/03 10:39:41;;;;;;;15.27;7.10;;;14.80;99.90;;;;;;5078478;28;20467;-74
2022/10/03 10:42:37;;;;;;;10.97;7.00;;;14.90;99.90;;;;;;5082037;28;20216;-73
2022/10/03 10:45:34;;;;;;;10.97;7.60;;;15.00;99.90;;;;;;5082909;28;20297;-75
2022/10/03 10:48:15;;;;;;;9.63;6.10;;;15.10;99.90;;;;;;5073167;28;20189;-74
2022/10/03 10:51:19;;;;;;;13.50;7.80;;;15.20;99.90;;;;;;5081144;28;20986;-73
2022/10/03 10:54:03;;;;;;;10.93;6.13;;;15.40;99.90;;;;;;5075497;28;20187;-73
2022/10/03 10:57:06;;;;;;;10.93;6.03;;;15.40;99.90;;;;;;5076760;28;20196;-71
2022/10/03 11:00:04;;;;;;;9.10;4.80;;;15.50;99.90;;;;;;5060833;28;20200;-75
2022/10/03 11:02:53;;;;;;;6.63;4.77;;;15.60;99.90;;;;;;5076193;28;20300;-72
2022/10/03 11:05:35;;;;;;;6.60;4.80;;;15.70;99.90;;;;;;5079391;28;22002;-73
2022/10/03 11:08:48;;;;;;;9.37;4.50;;;15.90;99.90;;;;;;5057410;28;20181;-73
2022/10/03 11:11:58;;;;;;;6.10;4.10;;;16.10;99.90;;;;;;5039797;28;20213;-72
2022/10/03 11:14:51;;;;;;;7.23;4.03;;;16.50;99.90;;;;;;5076920;28;20627;-72
2022/10/03 11:17:37;;;;;;;6.83;4.10;;;16.90;99.90;;;;;;5076819;28;20192;-72
2022/10/03 11:20:52;;;;;;;6.07;3.47;;;17.20;99.90;;;;;;5076210;28;20237;-72
2022/10/03 11:23:43;;;;;;;5.90;2.90;;;17.40;94.90;;;;;;5058330;28;20263;-72
2022/10/03 11:26:48;;;;;;;5.70;2.40;;;17.40;93.20;;;;;;5072370;28;20187;-74
2022/10/03 11:29:30;;;;;;;6.97;2.70;;;17.30;80.30;;;;;;5077798;28;20206;-73
2022/10/03 11:32:17;;;;;;;6.47;2.60;;;17.30;91.40;;;;;;5073477;28;20303;-75
2022/10/03 11:35:06;;;;;;;6.20;3.47;;;17.30;90.00;;;;;;5075614;28;20177;-74
2022/10/03 11:37:47;;;;;;;5.97;3.63;;;17.40;94.30;;;;;;5058613;28;20554;-74
2022/10/03 11:40:23;;;;;;;8.87;4.07;;;17.40;95.40;;;;;;5075553;28;20271;-74
2022/10/03 11:43:13;;;;;;;8.53;4.17;;;17.50;97.20;;;;;;5072979;28;20195;-72
2022/10/03 11:45:46;;;;;;;6.97;3.77;;;17.60;96.40;;;;;;5077219;28;20248;-74
2022/10/03 11:48:39;;;;;;;6.87;3.30;;;17.80;97.50;;;;;;5058291;28;20191;-75
2022/10/03 11:51:15;;;;;;;6.30;3.43;;;18.10;95.20;;;;;;5078671;28;20208;-74
2022/10/03 11:53:45;;;;;;;5.83;2.83;;;18.50;85.70;;;;;;5060366;28;20586;-75
2022/10/03 11:56:29;;;;;;;5.97;2.97;;;18.70;79.80;;;;;;5077925;28;20184;-75
2022/10/03 11:59:37;;;;;;;5.30;3.13;;;18.80;77.10;;;;;;5077938;28;20204;-75
2022/10/03 12:02:09;;;;;;;6.00;3.00;;;19.00;73.90;;;;;;5076567;28;20574;-75
2022/10/03 12:04:44;;;;;;;9.37;2.70;;;19.00;74.90;;;;;;5077853;28;20177;-75
2022/10/03 12:10:39;;;;;;;6.13;2.70;;;19.60;73.50;;;;;;5060024;28;20204;-75
2022/10/03 12:13:17;;;;;;;4.93;2.30;;;19.90;65.50;;;;;;5078874;28;20205;-82
2022/10/03 12:15:57;;;;;;;6.53;2.37;;;20.20;63.60;;;;;;5073657;28;20173;-76
2022/10/03 12:18:32;;;;;;;4.00;1.90;;;20.30;64.20;;;;;;5080903;28;20534;-76
2022/10/03 12:21:27;;;;;;;3.37;1.70;;;20.60;63.20;;;;;;5080804;28;20302;-73
2022/10/03 12:24:20;;;;;;;3.13;1.80;;;20.90;61.70;;;;;;5075470;28;20183;-76
2022/10/03 12:27:04;;;;;;;4.67;2.10;;;21.30;61.10;;;;;;5068209;28;20197;-75
2022/10/03 12:29:35;;;;;;;3.30;1.70;;;21.90;59.20;;;;;;5078469;28;20169;-74
2022/10/03 12:32:20;;;;;;;4.70;2.07;;;22.30;57.10;;;;;;5080602;28;20594;-74
2022/10/03 12:34:52;;;;;;;6.83;2.20;;;22.60;56.60;;;;;;5079872;28;20858;-73
2022/10/03 12:37:42;;;;;;;3.17;1.67;;;22.80;56.20;;;;;;5073724;28;20557;-73
2022/10/03 12:40:21;;;;;;;5.07;2.07;;;23.00;54.20;;;;;;5072894;28;20185;-74
2022/10/03 12:43:05;;;;;;;4.50;1.83;;;23.40;55.00;;;;;;5081364;28;20206;-78
2022/10/03 12:45:44;;;;;;;3.67;2.07;;;23.60;54.10;;;;;;5079720;28;20771;-73
2022/10/03 12:48:49;;;;;;;4.40;2.23;;;22.90;53.80;;;;;;5082442;28;20341;-73
2022/10/03 12:51:26;;;;;;;5.70;2.17;;;22.10;55.80;;;;;;5077596;28;20230;-73
2022/10/03 12:53:59;;;;;;;3.67;2.10;;;21.60;56.80;;;;;;5077285;28;20264;-73
2022/10/03 12:56:44;;;;;;;5.40;2.10;;;21.00;56.80;;;;;;5079906;28;20212;-73
2022/10/03 12:59:41;;;;;;;7.57;2.20;;;20.60;57.70;;;;;;5075549;28;20192;-73
2022/10/03 13:02:35;;;;;;;6.03;2.27;;;20.30;58.30;;;;;;5077423;28;20243;-71
2022/10/03 13:05:42;;;;;;;4.60;1.90;;;20.00;59.10;;;;;;5081757;28;20223;-71
2022/10/03 13:08:26;;;;;;;6.43;2.20;;;19.90;59.70;;;;;;4977267;28;20188;-71
2022/10/03 13:11:07;;;;;;;5.17;2.30;;;19.70;59.90;;;;;;5059441;28;20216;-71
2022/10/03 13:13:54;;;;;;;3.40;2.00;;;19.70;59.40;;;;;;5069288;28;20185;-72
2022/10/03 13:16:42;;;;;;;4.23;1.97;;;19.60;59.50;;;;;;5070825;28;20185;-73
2022/10/03 13:19:19;;;;;;;5.43;2.10;;;19.60;60.00;;;;;;5073459;28;20185;-73
2022/10/03 13:22:08;;;;;;;4.60;2.13;;;20.00;59.30;;;;;;5070809;28;20273;-73
2022/10/03 13:24:49;;;;;;;4.47;2.00;;;20.10;57.80;;;;;;5070276;28;20192;-73
2022/10/03 13:27:36;;;;;;;3.70;2.00;;;20.20;59.30;;;;;;5057402;28;20300;-73
2022/10/03 13:30:06;;;;;;;5.23;2.13;;;20.20;58.90;;;;;;5070557;28;20354;-73
2022/10/03 13:32:35;;;;;;;4.17;2.20;;;20.10;59.10;;;;;;5053501;28;20176;-73
2022/10/03 13:38:39;;;;;;;8.50;2.67;;;20.20;59.60;;;;;;5075188;28;20195;-73
2022/10/03 13:41:10;;;;;;;4.30;2.33;;;19.90;60.00;;;;;;5075033;28;20245;-73
2022/10/03 13:43:38;;;;;;;6.10;2.60;;;20.00;61.70;;;;;;5079817;28;20277;-72
2022/10/03 13:46:12;;;;;;;6.20;2.50;;;20.10;61.20;;;;;;5078625;28;20322;-73
2022/10/03 13:48:40;;;;;;;5.23;2.23;;;20.30;61.30;;;;;;5078960;28;20196;-76
2022/10/03 13:51:30;;;;;;;5.50;2.40;;;21.10;59.30;;;;;;5076138;28;20209;-73
2022/10/03 13:53:58;;;;;;;4.27;2.30;;;21.30;58.60;;;;;;5061691;28;20722;-73
2022/10/03 13:56:39;;;;;;;4.20;2.20;;;21.00;58.40;;;;;;5076656;28;20289;-73
2022/10/03 13:59:34;;;;;;;4.30;2.27;;;20.60;58.30;;;;;;5078898;28;20188;-73
2022/10/03 14:02:21;;;;;;;5.53;2.70;;;20.40;59.20;;;;;;5025947;28;20955;-73
2022/10/03 14:05:00;;;;;;;5.60;2.27;;;20.30;59.50;;;;;;5080700;28;20271;-73
2022/10/03 14:07:38;;;;;;;4.87;2.27;;;20.40;59.60;;;;;;5079569;28;20184;-73
2022/10/03 14:10:06;;;;;;;4.77;2.23;;;20.90;58.50;;;;;;5079912;28;20188;-73
2022/10/03 14:12:57;;;;;;;4.60;2.07;;;21.70;57.40;;;;;;5079970;28;20186;-73
2022/10/03 14:15:51;;;;;;;4.80;2.30;;;22.40;55.50;;;;;;5080562;28;20185;-73
2022/10/03 14:18:37;;;;;;;5.00;2.43;;;23.30;54.00;;;;;;5079293;28;20246;-73
2022/10/03 14:21:24;;;;;;;4.47;2.27;;;24.10;52.70;;;;;;5077712;28;20297;-73
2022/10/03 14:24:23;;;;;;;6.40;2.50;;;24.60;51.80;;;;;;5079003;28;20207;-73
2022/10/03 14:26:49;;;;;;;5.20;2.27;;;24.30;50.80;;;;;;5078369;28;20195;-73
2022/10/03 14:29:55;;;;;;;4.57;2.47;;;23.50;52.60;;;;;;5076716;28;20192;-73
2022/10/03 14:32:24;;;;;;;4.13;2.17;;;23.00;53.40;;;;;;5077596;28;20213;-73